sensor_id;sensor_type;location;lat;lon;timestamp;P1;durP1;ratioP1;P2;durP2;ratioP2
82415;SDS011;72058;47.782;10.618;2023-11-22T00:00:48;15.53;;;10.13;;
82415;SDS011;72058;47.782;10.618;2023-11-22T00:03:13;17.80;;;11.18;;
82415;SDS011;72058;47.782;10.618;2023-11-22T00:05:38;16.37;;;10.13;;
82415;SDS011;72058;47.782;10.618;2023-11-22T00:08:04;17.57;;;10.07;;
82415;SDS011;72058;47.782;10.618;2023-11-22T00:10:29;20.27;;;12.25;;
82415;SDS011;72058;47.782;10.618;2023-11-22T00:12:54;16.23;;;10.77;;
82415;SDS011;72058;47.782;10.618;2023-11-22T00:15:20;19.90;;;12.20;;
82415;SDS011;72058;47.782;10.618;2023-11-22T00:17:46;18.20;;;11.55;;
82415;SDS011;72058;47.782;10.618;2023-11-22T00:20:12;14.77;;;9.95;;
82415;SDS011;72058;47.782;10.618;2023-11-22T00:22:37;16.45;;;11.65;;
82415;SDS011;72058;47.782;10.618;2023-11-22T00:25:03;18.30;;;10.95;;
82415;SDS011;72058;47.782;10.618;2023-11-22T00:27:29;15.65;;;10.88;;
82415;SDS011;72058;47.782;10.618;2023-11-22T00:29:56;16.45;;;11.20;;
82415;SDS011;72058;47.782;10.618;2023-11-22T00:32:22;16.17;;;10.65;;
82415;SDS011;72058;47.782;10.618;2023-11-22T00:34:47;12.98;;;9.15;;
82415;SDS011;72058;47.782;10.618;2023-11-22T00:37:13;16.57;;;11.47;;
82415;SDS011;72058;47.782;10.618;2023-11-22T00:39:39;15.60;;;10.82;;
82415;SDS011;72058;47.782;10.618;2023-11-22T00:42:04;15.52;;;10.65;;
82415;SDS011;72058;47.782;10.618;2023-11-22T00:44:30;14.40;;;9.82;;
82415;SDS011;72058;47.782;10.618;2023-11-22T00:46:56;16.85;;;10.30;;
82415;SDS011;72058;47.782;10.618;2023-11-22T00:49:22;18.05;;;10.23;;
82415;SDS011;72058;47.782;10.618;2023-11-22T00:51:48;17.27;;;10.13;;
82415;SDS011;72058;47.782;10.618;2023-11-22T00:54:13;13.40;;;10.00;;
82415;SDS011;72058;47.782;10.618;2023-11-22T00:56:39;16.13;;;9.57;;
82415;SDS011;72058;47.782;10.618;2023-11-22T00:59:04;15.93;;;8.95;;
82415;SDS011;72058;47.782;10.618;2023-11-22T01:01:30;16.93;;;10.77;;
82415;SDS011;72058;47.782;10.618;2023-11-22T01:03:56;15.60;;;10.10;;
82415;SDS011;72058;47.782;10.618;2023-11-22T01:06:22;14.73;;;9.80;;
82415;SDS011;72058;47.782;10.618;2023-11-22T01:08:48;14.57;;;9.48;;
82415;SDS011;72058;47.782;10.618;2023-11-22T01:11:13;18.88;;;10.63;;
82415;SDS011;72058;47.782;10.618;2023-11-22T01:13:39;17.50;;;10.48;;
82415;SDS011;72058;47.782;10.618;2023-11-22T01:16:08;17.05;;;10.57;;
82415;SDS011;72058;47.782;10.618;2023-11-22T01:18:37;18.38;;;9.73;;
82415;SDS011;72058;47.782;10.618;2023-11-22T01:21:03;16.00;;;10.43;;
82415;SDS011;72058;47.782;10.618;2023-11-22T01:23:34;15.00;;;10.38;;
82415;SDS011;72058;47.782;10.618;2023-11-22T01:25:59;17.48;;;10.70;;
82415;SDS011;72058;47.782;10.618;2023-11-22T01:28:25;16.58;;;10.90;;
82415;SDS011;72058;47.782;10.618;2023-11-22T01:30:54;15.02;;;10.40;;
82415;SDS011;72058;47.782;10.618;2023-11-22T01:33:23;17.88;;;11.75;;
82415;SDS011;72058;47.782;10.618;2023-11-22T01:35:48;21.75;;;11.23;;
82415;SDS011;72058;47.782;10.618;2023-11-22T01:38:15;16.98;;;11.45;;
82415;SDS011;72058;47.782;10.618;2023-11-22T01:40:47;19.05;;;12.32;;
82415;SDS011;72058;47.782;10.618;2023-11-22T01:43:19;18.00;;;10.70;;
82415;SDS011;72058;47.782;10.618;2023-11-22T01:48:11;15.27;;;10.83;;
82415;SDS011;72058;47.782;10.618;2023-11-22T01:50:40;18.45;;;10.75;;
82415;SDS011;72058;47.782;10.618;2023-11-22T01:53:07;16.98;;;12.43;;
82415;SDS011;72058;47.782;10.618;2023-11-22T01:55:35;17.70;;;11.68;;
82415;SDS011;72058;47.782;10.618;2023-11-22T01:58:01;16.35;;;10.15;;
82415;SDS011;72058;47.782;10.618;2023-11-22T02:00:29;15.50;;;10.50;;
82415;SDS011;72058;47.782;10.618;2023-11-22T02:02:57;15.68;;;10.73;;
82415;SDS011;72058;47.782;10.618;2023-11-22T02:05:23;18.55;;;11.40;;
82415;SDS011;72058;47.782;10.618;2023-11-22T02:07:48;19.38;;;11.30;;
82415;SDS011;72058;47.782;10.618;2023-11-22T02:10:13;16.43;;;9.97;;
82415;SDS011;72058;47.782;10.618;2023-11-22T02:12:39;20.02;;;9.88;;
82415;SDS011;72058;47.782;10.618;2023-11-22T02:15:05;15.15;;;10.35;;
82415;SDS011;72058;47.782;10.618;2023-11-22T02:17:31;17.63;;;10.93;;
82415;SDS011;72058;47.782;10.618;2023-11-22T02:19:56;18.30;;;10.95;;
82415;SDS011;72058;47.782;10.618;2023-11-22T02:22:21;15.40;;;10.60;;
82415;SDS011;72058;47.782;10.618;2023-11-22T02:24:47;17.33;;;10.63;;
82415;SDS011;72058;47.782;10.618;2023-11-22T02:27:12;15.85;;;10.65;;
82415;SDS011;72058;47.782;10.618;2023-11-22T02:29:37;17.77;;;11.02;;
82415;SDS011;72058;47.782;10.618;2023-11-22T02:32:03;14.73;;;9.93;;
82415;SDS011;72058;47.782;10.618;2023-11-22T02:34:29;18.20;;;11.00;;
82415;SDS011;72058;47.782;10.618;2023-11-22T02:36:54;16.60;;;10.32;;
82415;SDS011;72058;47.782;10.618;2023-11-22T02:39:19;16.27;;;10.23;;
82415;SDS011;72058;47.782;10.618;2023-11-22T02:41:46;17.02;;;10.05;;
82415;SDS011;72058;47.782;10.618;2023-11-22T02:44:11;16.90;;;10.47;;
82415;SDS011;72058;47.782;10.618;2023-11-22T02:46:42;17.13;;;10.45;;
82415;SDS011;72058;47.782;10.618;2023-11-22T02:49:07;15.07;;;9.73;;
82415;SDS011;72058;47.782;10.618;2023-11-22T02:51:35;16.80;;;10.30;;
82415;SDS011;72058;47.782;10.618;2023-11-22T02:54:00;15.35;;;9.18;;
82415;SDS011;72058;47.782;10.618;2023-11-22T02:56:25;15.07;;;10.47;;
82415;SDS011;72058;47.782;10.618;2023-11-22T02:58:51;17.27;;;10.60;;
82415;SDS011;72058;47.782;10.618;2023-11-22T03:01:16;17.55;;;10.32;;
82415;SDS011;72058;47.782;10.618;2023-11-22T03:03:41;16.80;;;10.73;;
82415;SDS011;72058;47.782;10.618;2023-11-22T03:06:07;14.00;;;8.90;;
82415;SDS011;72058;47.782;10.618;2023-11-22T03:08:32;14.73;;;10.03;;
82415;SDS011;72058;47.782;10.618;2023-11-22T03:10:58;16.15;;;10.00;;
82415;SDS011;72058;47.782;10.618;2023-11-22T03:13:23;15.57;;;11.67;;
82415;SDS011;72058;47.782;10.618;2023-11-22T03:15:48;16.77;;;9.40;;
82415;SDS011;72058;47.782;10.618;2023-11-22T03:18:14;17.13;;;11.47;;
82415;SDS011;72058;47.782;10.618;2023-11-22T03:20:41;17.50;;;10.45;;
82415;SDS011;72058;47.782;10.618;2023-11-22T03:23:08;14.88;;;10.27;;
82415;SDS011;72058;47.782;10.618;2023-11-22T03:25:35;15.35;;;11.25;;
82415;SDS011;72058;47.782;10.618;2023-11-22T03:28:01;17.75;;;9.90;;
82415;SDS011;72058;47.782;10.618;2023-11-22T03:30:26;15.75;;;10.13;;
82415;SDS011;72058;47.782;10.618;2023-11-22T03:32:51;17.00;;;11.47;;
82415;SDS011;72058;47.782;10.618;2023-11-22T03:35:17;15.13;;;9.57;;
82415;SDS011;72058;47.782;10.618;2023-11-22T03:37:42;16.48;;;8.65;;
82415;SDS011;72058;47.782;10.618;2023-11-22T03:40:07;16.50;;;10.00;;
82415;SDS011;72058;47.782;10.618;2023-11-22T03:42:35;15.63;;;10.30;;
82415;SDS011;72058;47.782;10.618;2023-11-22T03:45:02;16.05;;;10.25;;
82415;SDS011;72058;47.782;10.618;2023-11-22T03:47:28;14.75;;;9.50;;
82415;SDS011;72058;47.782;10.618;2023-11-22T03:49:53;13.73;;;9.60;;
82415;SDS011;72058;47.782;10.618;2023-11-22T03:52:18;14.17;;;9.40;;
82415;SDS011;72058;47.782;10.618;2023-11-22T03:54:44;15.68;;;10.07;;
82415;SDS011;72058;47.782;10.618;2023-11-22T03:57:09;16.87;;;10.50;;
82415;SDS011;72058;47.782;10.618;2023-11-22T03:59:35;16.02;;;11.05;;
82415;SDS011;72058;47.782;10.618;2023-11-22T04:02:00;17.83;;;11.43;;
82415;SDS011;72058;47.782;10.618;2023-11-22T04:04:25;15.73;;;10.55;;
82415;SDS011;72058;47.782;10.618;2023-11-22T04:06:51;18.17;;;10.80;;
82415;SDS011;72058;47.782;10.618;2023-11-22T04:09:17;19.70;;;10.98;;
82415;SDS011;72058;47.782;10.618;2023-11-22T04:11:43;15.18;;;9.70;;
82415;SDS011;72058;47.782;10.618;2023-11-22T04:14:08;15.70;;;9.77;;
82415;SDS011;72058;47.782;10.618;2023-11-22T04:16:34;14.53;;;8.67;;
82415;SDS011;72058;47.782;10.618;2023-11-22T04:18:59;16.15;;;8.55;;
82415;SDS011;72058;47.782;10.618;2023-11-22T04:21:24;13.85;;;10.35;;
82415;SDS011;72058;47.782;10.618;2023-11-22T04:23:50;15.38;;;9.57;;
82415;SDS011;72058;47.782;10.618;2023-11-22T04:26:16;7.22;;;5.65;;
82415;SDS011;72058;47.782;10.618;2023-11-22T04:28:41;4.95;;;4.43;;
82415;SDS011;72058;47.782;10.618;2023-11-22T04:31:07;4.20;;;3.78;;
82415;SDS011;72058;47.782;10.618;2023-11-22T04:33:34;4.85;;;4.05;;
82415;SDS011;72058;47.782;10.618;2023-11-22T04:35:59;4.05;;;3.65;;
82415;SDS011;72058;47.782;10.618;2023-11-22T04:38:25;6.30;;;5.55;;
82415;SDS011;72058;47.782;10.618;2023-11-22T04:40:51;4.72;;;4.32;;
82415;SDS011;72058;47.782;10.618;2023-11-22T04:43:17;4.13;;;3.72;;
82415;SDS011;72058;47.782;10.618;2023-11-22T04:45:42;4.00;;;3.45;;
82415;SDS011;72058;47.782;10.618;2023-11-22T04:48:08;4.53;;;4.13;;
82415;SDS011;72058;47.782;10.618;2023-11-22T04:50:34;5.28;;;3.95;;
82415;SDS011;72058;47.782;10.618;2023-11-22T04:53:00;4.18;;;3.80;;
82415;SDS011;72058;47.782;10.618;2023-11-22T04:55:26;3.83;;;3.38;;
82415;SDS011;72058;47.782;10.618;2023-11-22T04:57:53;4.70;;;4.22;;
82415;SDS011;72058;47.782;10.618;2023-11-22T05:00:19;4.05;;;3.63;;
82415;SDS011;72058;47.782;10.618;2023-11-22T05:02:44;4.40;;;3.85;;
82415;SDS011;72058;47.782;10.618;2023-11-22T05:05:09;5.83;;;5.23;;
82415;SDS011;72058;47.782;10.618;2023-11-22T05:07:37;4.97;;;4.07;;
82415;SDS011;72058;47.782;10.618;2023-11-22T05:10:04;4.93;;;4.35;;
82415;SDS011;72058;47.782;10.618;2023-11-22T05:14:56;6.20;;;5.60;;
82415;SDS011;72058;47.782;10.618;2023-11-22T05:17:21;5.47;;;4.97;;
82415;SDS011;72058;47.782;10.618;2023-11-22T05:19:47;4.80;;;4.15;;
82415;SDS011;72058;47.782;10.618;2023-11-22T05:22:12;4.30;;;3.57;;
82415;SDS011;72058;47.782;10.618;2023-11-22T05:24:37;4.70;;;4.05;;
82415;SDS011;72058;47.782;10.618;2023-11-22T05:27:06;4.85;;;4.25;;
82415;SDS011;72058;47.782;10.618;2023-11-22T05:29:32;5.22;;;4.72;;
82415;SDS011;72058;47.782;10.618;2023-11-22T05:31:57;5.72;;;4.75;;
82415;SDS011;72058;47.782;10.618;2023-11-22T05:34:23;5.23;;;4.37;;
82415;SDS011;72058;47.782;10.618;2023-11-22T05:36:48;5.10;;;4.60;;
82415;SDS011;72058;47.782;10.618;2023-11-22T05:39:13;4.90;;;4.27;;
82415;SDS011;72058;47.782;10.618;2023-11-22T05:41:39;5.28;;;4.57;;
82415;SDS011;72058;47.782;10.618;2023-11-22T05:44:04;5.45;;;3.33;;
82415;SDS011;72058;47.782;10.618;2023-11-22T05:46:30;3.97;;;3.67;;
82415;SDS011;72058;47.782;10.618;2023-11-22T05:48:55;4.73;;;4.37;;
82415;SDS011;72058;47.782;10.618;2023-11-22T05:51:20;4.63;;;3.85;;
82415;SDS011;72058;47.782;10.618;2023-11-22T05:53:46;4.93;;;3.58;;
82415;SDS011;72058;47.782;10.618;2023-11-22T05:56:12;4.82;;;3.72;;
82415;SDS011;72058;47.782;10.618;2023-11-22T05:58:38;5.53;;;4.40;;
82415;SDS011;72058;47.782;10.618;2023-11-22T06:01:04;6.60;;;5.50;;
82415;SDS011;72058;47.782;10.618;2023-11-22T06:03:30;5.75;;;4.53;;
82415;SDS011;72058;47.782;10.618;2023-11-22T06:05:56;8.07;;;5.45;;
82415;SDS011;72058;47.782;10.618;2023-11-22T06:08:22;7.38;;;6.30;;
82415;SDS011;72058;47.782;10.618;2023-11-22T06:10:48;6.18;;;5.35;;
82415;SDS011;72058;47.782;10.618;2023-11-22T06:13:13;6.13;;;4.97;;
82415;SDS011;72058;47.782;10.618;2023-11-22T06:15:39;7.20;;;6.50;;
82415;SDS011;72058;47.782;10.618;2023-11-22T06:18:05;7.72;;;6.15;;
82415;SDS011;72058;47.782;10.618;2023-11-22T06:20:30;5.82;;;5.10;;
82415;SDS011;72058;47.782;10.618;2023-11-22T06:22:55;6.13;;;5.10;;
82415;SDS011;72058;47.782;10.618;2023-11-22T06:25:21;6.25;;;5.35;;
82415;SDS011;72058;47.782;10.618;2023-11-22T06:27:47;5.97;;;4.97;;
82415;SDS011;72058;47.782;10.618;2023-11-22T06:30:12;6.47;;;5.10;;
82415;SDS011;72058;47.782;10.618;2023-11-22T06:32:38;5.43;;;4.45;;
82415;SDS011;72058;47.782;10.618;2023-11-22T06:35:04;5.45;;;4.93;;
82415;SDS011;72058;47.782;10.618;2023-11-22T06:37:31;5.28;;;4.75;;
82415;SDS011;72058;47.782;10.618;2023-11-22T06:39:56;5.27;;;4.57;;
82415;SDS011;72058;47.782;10.618;2023-11-22T06:42:22;7.18;;;5.38;;
82415;SDS011;72058;47.782;10.618;2023-11-22T06:44:48;5.95;;;5.45;;
82415;SDS011;72058;47.782;10.618;2023-11-22T06:47:13;4.90;;;4.50;;
82415;SDS011;72058;47.782;10.618;2023-11-22T06:49:39;5.40;;;4.75;;
82415;SDS011;72058;47.782;10.618;2023-11-22T06:52:04;6.60;;;5.45;;
82415;SDS011;72058;47.782;10.618;2023-11-22T06:54:30;6.05;;;5.25;;
82415;SDS011;72058;47.782;10.618;2023-11-22T06:56:56;6.30;;;5.35;;
82415;SDS011;72058;47.782;10.618;2023-11-22T06:59:21;6.95;;;5.45;;
82415;SDS011;72058;47.782;10.618;2023-11-22T07:01:46;6.03;;;5.43;;
82415;SDS011;72058;47.782;10.618;2023-11-22T07:04:12;6.53;;;5.50;;
82415;SDS011;72058;47.782;10.618;2023-11-22T07:06:38;8.70;;;5.63;;
82415;SDS011;72058;47.782;10.618;2023-11-22T07:09:04;8.93;;;7.20;;
82415;SDS011;72058;47.782;10.618;2023-11-22T07:11:29;10.50;;;6.97;;
82415;SDS011;72058;47.782;10.618;2023-11-22T07:13:55;7.43;;;6.75;;
82415;SDS011;72058;47.782;10.618;2023-11-22T07:16:22;10.30;;;7.32;;
82415;SDS011;72058;47.782;10.618;2023-11-22T07:18:48;9.05;;;8.15;;
82415;SDS011;72058;47.782;10.618;2023-11-22T07:21:13;8.10;;;6.03;;
82415;SDS011;72058;47.782;10.618;2023-11-22T07:23:38;9.02;;;7.32;;
82415;SDS011;72058;47.782;10.618;2023-11-22T07:26:04;8.17;;;6.90;;
82415;SDS011;72058;47.782;10.618;2023-11-22T07:28:31;10.35;;;7.13;;
82415;SDS011;72058;47.782;10.618;2023-11-22T07:30:56;8.80;;;6.75;;
82415;SDS011;72058;47.782;10.618;2023-11-22T07:33:21;9.80;;;6.40;;
82415;SDS011;72058;47.782;10.618;2023-11-22T07:35:47;12.32;;;6.28;;
82415;SDS011;72058;47.782;10.618;2023-11-22T07:38:13;10.02;;;6.70;;
82415;SDS011;72058;47.782;10.618;2023-11-22T07:40:39;8.35;;;6.95;;
82415;SDS011;72058;47.782;10.618;2023-11-22T07:43:04;8.80;;;6.68;;
82415;SDS011;72058;47.782;10.618;2023-11-22T07:45:30;9.77;;;7.37;;
82415;SDS011;72058;47.782;10.618;2023-11-22T07:47:57;7.97;;;5.93;;
82415;SDS011;72058;47.782;10.618;2023-11-22T07:50:24;10.90;;;7.18;;
82415;SDS011;72058;47.782;10.618;2023-11-22T07:52:50;9.88;;;6.80;;
82415;SDS011;72058;47.782;10.618;2023-11-22T07:55:16;8.10;;;6.80;;
82415;SDS011;72058;47.782;10.618;2023-11-22T07:57:43;8.85;;;6.78;;
82415;SDS011;72058;47.782;10.618;2023-11-22T08:00:09;9.57;;;7.93;;
82415;SDS011;72058;47.782;10.618;2023-11-22T08:02:36;10.05;;;7.40;;
82415;SDS011;72058;47.782;10.618;2023-11-22T08:05:04;10.57;;;9.48;;
82415;SDS011;72058;47.782;10.618;2023-11-22T08:07:33;8.40;;;6.82;;
82415;SDS011;72058;47.782;10.618;2023-11-22T08:10:00;13.68;;;6.65;;
82415;SDS011;72058;47.782;10.618;2023-11-22T08:12:34;9.02;;;6.15;;
82415;SDS011;72058;47.782;10.618;2023-11-22T08:15:02;8.48;;;5.78;;
82415;SDS011;72058;47.782;10.618;2023-11-22T08:17:28;10.32;;;6.53;;
82415;SDS011;72058;47.782;10.618;2023-11-22T08:19:54;10.10;;;6.93;;
82415;SDS011;72058;47.782;10.618;2023-11-22T08:22:20;8.55;;;5.88;;
82415;SDS011;72058;47.782;10.618;2023-11-22T08:24:46;8.70;;;6.15;;
82415;SDS011;72058;47.782;10.618;2023-11-22T08:27:12;7.53;;;5.95;;
82415;SDS011;72058;47.782;10.618;2023-11-22T08:29:40;9.75;;;6.75;;
82415;SDS011;72058;47.782;10.618;2023-11-22T08:32:05;9.17;;;6.57;;
82415;SDS011;72058;47.782;10.618;2023-11-22T08:34:31;8.73;;;6.63;;
82415;SDS011;72058;47.782;10.618;2023-11-22T08:36:57;14.60;;;6.43;;
82415;SDS011;72058;47.782;10.618;2023-11-22T08:39:24;9.60;;;7.45;;
82415;SDS011;72058;47.782;10.618;2023-11-22T08:41:49;9.27;;;5.93;;
82415;SDS011;72058;47.782;10.618;2023-11-22T08:44:15;8.80;;;6.03;;
82415;SDS011;72058;47.782;10.618;2023-11-22T08:46:41;10.32;;;6.97;;
82415;SDS011;72058;47.782;10.618;2023-11-22T08:49:06;8.43;;;7.00;;
82415;SDS011;72058;47.782;10.618;2023-11-22T08:51:31;8.47;;;7.27;;
82415;SDS011;72058;47.782;10.618;2023-11-22T08:53:58;10.93;;;6.93;;
82415;SDS011;72058;47.782;10.618;2023-11-22T08:56:24;9.32;;;6.43;;
82415;SDS011;72058;47.782;10.618;2023-11-22T08:58:49;8.68;;;6.35;;
82415;SDS011;72058;47.782;10.618;2023-11-22T09:01:15;9.57;;;7.17;;
82415;SDS011;72058;47.782;10.618;2023-11-22T09:03:40;9.50;;;7.03;;
82415;SDS011;72058;47.782;10.618;2023-11-22T09:06:06;8.48;;;6.63;;
82415;SDS011;72058;47.782;10.618;2023-11-22T09:08:32;8.07;;;6.25;;
82415;SDS011;72058;47.782;10.618;2023-11-22T09:10:57;9.63;;;6.93;;
82415;SDS011;72058;47.782;10.618;2023-11-22T09:13:23;10.63;;;7.30;;
82415;SDS011;72058;47.782;10.618;2023-11-22T09:15:49;8.18;;;6.28;;
82415;SDS011;72058;47.782;10.618;2023-11-22T09:18:15;8.07;;;6.30;;
82415;SDS011;72058;47.782;10.618;2023-11-22T09:20:44;8.45;;;6.55;;
82415;SDS011;72058;47.782;10.618;2023-11-22T09:23:09;8.48;;;5.80;;
82415;SDS011;72058;47.782;10.618;2023-11-22T09:25:35;8.60;;;6.07;;
82415;SDS011;72058;47.782;10.618;2023-11-22T09:28:01;8.77;;;6.55;;
82415;SDS011;72058;47.782;10.618;2023-11-22T09:30:30;4.85;;;4.45;;
82415;SDS011;72058;47.782;10.618;2023-11-22T09:35:29;5.30;;;4.47;;
82415;SDS011;72058;47.782;10.618;2023-11-22T09:37:56;4.82;;;4.43;;
82415;SDS011;72058;47.782;10.618;2023-11-22T09:40:22;4.82;;;4.32;;
82415;SDS011;72058;47.782;10.618;2023-11-22T09:42:48;6.85;;;6.15;;
82415;SDS011;72058;47.782;10.618;2023-11-22T09:45:19;6.45;;;5.30;;
82415;SDS011;72058;47.782;10.618;2023-11-22T09:47:45;7.75;;;5.57;;
82415;SDS011;72058;47.782;10.618;2023-11-22T09:50:14;6.03;;;5.43;;
82415;SDS011;72058;47.782;10.618;2023-11-22T09:52:45;6.95;;;5.90;;
82415;SDS011;72058;47.782;10.618;2023-11-22T09:55:14;7.93;;;5.90;;
82415;SDS011;72058;47.782;10.618;2023-11-22T09:57:40;6.25;;;5.50;;
82415;SDS011;72058;47.782;10.618;2023-11-22T10:00:06;6.63;;;5.78;;
82415;SDS011;72058;47.782;10.618;2023-11-22T10:02:39;6.13;;;5.57;;
82415;SDS011;72058;47.782;10.618;2023-11-22T10:07:31;7.50;;;6.80;;
82415;SDS011;72058;47.782;10.618;2023-11-22T10:09:57;7.18;;;5.57;;
82415;SDS011;72058;47.782;10.618;2023-11-22T10:12:27;7.03;;;6.32;;
82415;SDS011;72058;47.782;10.618;2023-11-22T10:14:54;7.95;;;6.97;;
82415;SDS011;72058;47.782;10.618;2023-11-22T10:17:20;7.53;;;6.83;;
82415;SDS011;72058;47.782;10.618;2023-11-22T10:19:45;7.78;;;6.97;;
82415;SDS011;72058;47.782;10.618;2023-11-22T10:22:11;6.67;;;6.00;;
82415;SDS011;72058;47.782;10.618;2023-11-22T10:24:42;7.32;;;6.57;;
82415;SDS011;72058;47.782;10.618;2023-11-22T10:27:09;7.78;;;6.88;;
82415;SDS011;72058;47.782;10.618;2023-11-22T10:29:35;7.88;;;6.38;;
82415;SDS011;72058;47.782;10.618;2023-11-22T10:32:01;7.25;;;6.55;;
82415;SDS011;72058;47.782;10.618;2023-11-22T10:34:28;9.40;;;6.88;;
82415;SDS011;72058;47.782;10.618;2023-11-22T10:36:55;8.68;;;6.85;;
82415;SDS011;72058;47.782;10.618;2023-11-22T10:39:21;6.80;;;6.10;;
82415;SDS011;72058;47.782;10.618;2023-11-22T10:41:46;8.35;;;7.18;;
82415;SDS011;72058;47.782;10.618;2023-11-22T10:44:12;8.45;;;7.40;;
82415;SDS011;72058;47.782;10.618;2023-11-22T10:46:41;9.52;;;7.25;;
82415;SDS011;72058;47.782;10.618;2023-11-22T10:49:06;9.70;;;8.73;;
82415;SDS011;72058;47.782;10.618;2023-11-22T10:51:32;9.00;;;7.78;;
82415;SDS011;72058;47.782;10.618;2023-11-22T10:54:01;8.98;;;8.07;;
82415;SDS011;72058;47.782;10.618;2023-11-22T10:56:28;11.52;;;8.82;;
82415;SDS011;72058;47.782;10.618;2023-11-22T10:58:58;11.13;;;7.88;;
82415;SDS011;72058;47.782;10.618;2023-11-22T11:01:26;10.60;;;7.75;;
82415;SDS011;72058;47.782;10.618;2023-11-22T11:04:09;10.00;;;8.10;;
82415;SDS011;72058;47.782;10.618;2023-11-22T11:06:42;8.10;;;7.28;;
82415;SDS011;72058;47.782;10.618;2023-11-22T11:09:11;8.50;;;7.10;;
82415;SDS011;72058;47.782;10.618;2023-11-22T11:11:40;10.13;;;8.15;;
82415;SDS011;72058;47.782;10.618;2023-11-22T11:14:07;10.55;;;8.35;;
82415;SDS011;72058;47.782;10.618;2023-11-22T11:16:37;8.20;;;7.03;;
82415;SDS011;72058;47.782;10.618;2023-11-22T11:19:06;9.00;;;7.45;;
82415;SDS011;72058;47.782;10.618;2023-11-22T11:21:32;12.15;;;9.00;;
82415;SDS011;72058;47.782;10.618;2023-11-22T11:23:58;11.20;;;7.03;;
82415;SDS011;72058;47.782;10.618;2023-11-22T11:26:27;9.48;;;7.55;;
82415;SDS011;72058;47.782;10.618;2023-11-22T11:28:54;11.07;;;7.85;;
82415;SDS011;72058;47.782;10.618;2023-11-22T11:31:22;10.55;;;8.15;;
82415;SDS011;72058;47.782;10.618;2023-11-22T11:36:15;10.50;;;8.43;;
82415;SDS011;72058;47.782;10.618;2023-11-22T11:38:59;8.48;;;7.25;;
82415;SDS011;72058;47.782;10.618;2023-11-22T11:41:27;8.32;;;7.00;;
82415;SDS011;72058;47.782;10.618;2023-11-22T11:43:57;8.82;;;7.28;;
82415;SDS011;72058;47.782;10.618;2023-11-22T11:46:23;11.43;;;8.73;;
82415;SDS011;72058;47.782;10.618;2023-11-22T11:48:52;10.05;;;7.80;;
82415;SDS011;72058;47.782;10.618;2023-11-22T11:53:46;8.95;;;7.50;;
82415;SDS011;72058;47.782;10.618;2023-11-22T11:56:11;7.73;;;6.80;;
82415;SDS011;72058;47.782;10.618;2023-11-22T11:58:37;9.43;;;6.97;;
82415;SDS011;72058;47.782;10.618;2023-11-22T12:01:05;8.73;;;7.30;;
82415;SDS011;72058;47.782;10.618;2023-11-22T12:03:32;10.57;;;7.38;;
82415;SDS011;72058;47.782;10.618;2023-11-22T12:05:57;9.20;;;6.65;;
82415;SDS011;72058;47.782;10.618;2023-11-22T12:08:23;10.48;;;7.55;;
82415;SDS011;72058;47.782;10.618;2023-11-22T12:10:48;8.70;;;7.32;;
82415;SDS011;72058;47.782;10.618;2023-11-22T12:13:23;11.25;;;7.45;;
82415;SDS011;72058;47.782;10.618;2023-11-22T12:15:48;10.13;;;8.52;;
82415;SDS011;72058;47.782;10.618;2023-11-22T12:18:16;10.68;;;8.27;;
82415;SDS011;72058;47.782;10.618;2023-11-22T12:20:42;10.48;;;8.52;;
82415;SDS011;72058;47.782;10.618;2023-11-22T12:23:20;9.48;;;8.27;;
82415;SDS011;72058;47.782;10.618;2023-11-22T12:25:46;10.25;;;7.45;;
82415;SDS011;72058;47.782;10.618;2023-11-22T12:28:15;10.05;;;8.45;;
82415;SDS011;72058;47.782;10.618;2023-11-22T12:30:42;9.30;;;7.72;;
82415;SDS011;72058;47.782;10.618;2023-11-22T12:33:09;9.60;;;7.70;;
82415;SDS011;72058;47.782;10.618;2023-11-22T12:35:35;8.48;;;7.03;;
82415;SDS011;72058;47.782;10.618;2023-11-22T12:38:01;10.98;;;7.28;;
82415;SDS011;72058;47.782;10.618;2023-11-22T12:40:30;9.18;;;7.35;;
82415;SDS011;72058;47.782;10.618;2023-11-22T12:42:57;10.07;;;8.43;;
82415;SDS011;72058;47.782;10.618;2023-11-22T12:45:23;10.52;;;9.02;;
82415;SDS011;72058;47.782;10.618;2023-11-22T12:47:50;10.57;;;7.28;;
82415;SDS011;72058;47.782;10.618;2023-11-22T12:50:35;10.30;;;6.75;;
82415;SDS011;72058;47.782;10.618;2023-11-22T12:53:07;11.02;;;7.50;;
82415;SDS011;72058;47.782;10.618;2023-11-22T12:58:13;9.30;;;8.05;;
82415;SDS011;72058;47.782;10.618;2023-11-22T13:00:38;11.48;;;8.93;;
82415;SDS011;72058;47.782;10.618;2023-11-22T13:03:07;7.93;;;7.03;;
82415;SDS011;72058;47.782;10.618;2023-11-22T13:05:37;9.63;;;7.65;;
82415;SDS011;72058;47.782;10.618;2023-11-22T13:08:03;9.60;;;7.13;;
82415;SDS011;72058;47.782;10.618;2023-11-22T13:10:29;10.43;;;7.97;;
82415;SDS011;72058;47.782;10.618;2023-11-22T13:12:55;12.85;;;8.85;;
82415;SDS011;72058;47.782;10.618;2023-11-22T13:15:21;10.88;;;7.93;;
82415;SDS011;72058;47.782;10.618;2023-11-22T13:17:51;10.82;;;9.15;;
82415;SDS011;72058;47.782;10.618;2023-11-22T13:20:26;8.57;;;7.70;;
82415;SDS011;72058;47.782;10.618;2023-11-22T13:22:52;10.15;;;7.88;;
82415;SDS011;72058;47.782;10.618;2023-11-22T13:25:19;10.45;;;8.13;;
82415;SDS011;72058;47.782;10.618;2023-11-22T13:27:46;10.45;;;7.80;;
82415;SDS011;72058;47.782;10.618;2023-11-22T13:30:15;10.05;;;8.15;;
82415;SDS011;72058;47.782;10.618;2023-11-22T13:32:44;10.05;;;7.97;;
82415;SDS011;72058;47.782;10.618;2023-11-22T13:35:09;12.02;;;8.23;;
82415;SDS011;72058;47.782;10.618;2023-11-22T13:37:42;9.30;;;7.53;;
82415;SDS011;72058;47.782;10.618;2023-11-22T13:40:13;9.75;;;8.73;;
82415;SDS011;72058;47.782;10.618;2023-11-22T13:42:43;8.25;;;7.35;;
82415;SDS011;72058;47.782;10.618;2023-11-22T13:45:12;10.65;;;7.60;;
82415;SDS011;72058;47.782;10.618;2023-11-22T13:47:45;10.90;;;7.85;;
82415;SDS011;72058;47.782;10.618;2023-11-22T13:50:15;10.52;;;7.13;;
82415;SDS011;72058;47.782;10.618;2023-11-22T13:52:47;13.65;;;9.10;;
82415;SDS011;72058;47.782;10.618;2023-11-22T13:55:13;20.13;;;11.75;;
82415;SDS011;72058;47.782;10.618;2023-11-22T13:57:40;12.95;;;10.38;;
82415;SDS011;72058;47.782;10.618;2023-11-22T14:00:06;11.07;;;8.73;;
82415;SDS011;72058;47.782;10.618;2023-11-22T14:02:43;9.35;;;7.25;;
82415;SDS011;72058;47.782;10.618;2023-11-22T14:05:09;11.05;;;7.55;;
82415;SDS011;72058;47.782;10.618;2023-11-22T14:07:37;7.65;;;6.82;;
82415;SDS011;72058;47.782;10.618;2023-11-22T14:10:03;10.02;;;7.45;;
82415;SDS011;72058;47.782;10.618;2023-11-22T14:12:30;8.77;;;7.60;;
82415;SDS011;72058;47.782;10.618;2023-11-22T14:14:58;9.20;;;8.07;;
82415;SDS011;72058;47.782;10.618;2023-11-22T14:17:24;10.65;;;8.52;;
82415;SDS011;72058;47.782;10.618;2023-11-22T14:19:51;10.32;;;8.77;;
82415;SDS011;72058;47.782;10.618;2023-11-22T14:22:17;9.32;;;7.43;;
82415;SDS011;72058;47.782;10.618;2023-11-22T14:24:44;8.77;;;7.78;;
82415;SDS011;72058;47.782;10.618;2023-11-22T14:27:12;9.50;;;7.90;;
82415;SDS011;72058;47.782;10.618;2023-11-22T14:29:37;9.87;;;7.73;;
82415;SDS011;72058;47.782;10.618;2023-11-22T14:32:03;8.77;;;7.00;;
82415;SDS011;72058;47.782;10.618;2023-11-22T14:34:29;8.50;;;7.25;;
82415;SDS011;72058;47.782;10.618;2023-11-22T14:36:54;9.50;;;7.38;;
82415;SDS011;72058;47.782;10.618;2023-11-22T14:39:20;9.82;;;8.23;;